sensor_id;sensor_type;location;lat;lon;timestamp;P1;durP1;ratioP1;P2;durP2;ratioP2
75419;SDS011;63998;52.488;13.428;2024-01-11T01:27:42;9.65;;;4.30;;
75419;SDS011;63998;52.488;13.428;2024-01-11T01:30:08;10.98;;;4.25;;
75419;SDS011;63998;52.488;13.428;2024-01-11T01:32:33;8.93;;;4.22;;
75419;SDS011;63998;52.488;13.428;2024-01-11T01:34:59;10.13;;;4.43;;
75419;SDS011;63998;52.488;13.428;2024-01-11T01:37:25;12.50;;;5.23;;
75419;SDS011;63998;52.488;13.428;2024-01-11T01:39:50;12.50;;;5.40;;
75419;SDS011;63998;52.488;13.428;2024-01-11T01:42:16;10.80;;;5.00;;
75419;SDS011;63998;52.488;13.428;2024-01-11T01:44:41;14.53;;;5.63;;
75419;SDS011;63998;52.488;13.428;2024-01-11T01:47:07;10.15;;;4.72;;
75419;SDS011;63998;52.488;13.428;2024-01-11T01:49:33;12.02;;;5.22;;
75419;SDS011;63998;52.488;13.428;2024-01-11T01:52:02;9.85;;;4.80;;
75419;SDS011;63998;52.488;13.428;2024-01-11T01:54:28;10.43;;;5.55;;
75419;SDS011;63998;52.488;13.428;2024-01-11T01:56:54;11.68;;;5.65;;
75419;SDS011;63998;52.488;13.428;2024-01-11T01:59:20;11.98;;;5.60;;
75419;SDS011;63998;52.488;13.428;2024-01-11T02:01:46;11.38;;;5.18;;
75419;SDS011;63998;52.488;13.428;2024-01-11T02:04:12;10.48;;;4.78;;
75419;SDS011;63998;52.488;13.428;2024-01-11T02:06:39;11.02;;;4.70;;
75419;SDS011;63998;52.488;13.428;2024-01-11T02:09:05;10.35;;;4.40;;
75419;SDS011;63998;52.488;13.428;2024-01-11T02:11:33;12.45;;;5.00;;
75419;SDS011;63998;52.488;13.428;2024-01-11T02:13:58;11.52;;;5.20;;
75419;SDS011;63998;52.488;13.428;2024-01-11T02:16:24;10.55;;;4.40;;
75419;SDS011;63998;52.488;13.428;2024-01-11T02:18:50;10.53;;;4.83;;
75419;SDS011;63998;52.488;13.428;2024-01-11T02:21:15;9.97;;;4.53;;
75419;SDS011;63998;52.488;13.428;2024-01-11T02:23:43;12.70;;;5.10;;
75419;SDS011;63998;52.488;13.428;2024-01-11T02:26:13;11.32;;;4.82;;
75419;SDS011;63998;52.488;13.428;2024-01-11T02:28:42;9.05;;;4.53;;
75419;SDS011;63998;52.488;13.428;2024-01-11T02:33:34;9.30;;;3.70;;
75419;SDS011;63998;52.488;13.428;2024-01-11T02:35:59;13.55;;;4.63;;
75419;SDS011;63998;52.488;13.428;2024-01-11T02:38:24;10.95;;;4.70;;
75419;SDS011;63998;52.488;13.428;2024-01-11T02:40:50;14.13;;;4.90;;
75419;SDS011;63998;52.488;13.428;2024-01-11T02:43:16;12.07;;;5.22;;
75419;SDS011;63998;52.488;13.428;2024-01-11T02:45:41;11.15;;;4.40;;
75419;SDS011;63998;52.488;13.428;2024-01-11T02:48:07;12.70;;;5.00;;
75419;SDS011;63998;52.488;13.428;2024-01-11T02:50:32;13.50;;;5.25;;
75419;SDS011;63998;52.488;13.428;2024-01-11T02:52:57;13.30;;;5.25;;
75419;SDS011;63998;52.488;13.428;2024-01-11T02:55:23;14.60;;;5.10;;
75419;SDS011;63998;52.488;13.428;2024-01-11T02:57:48;12.23;;;5.70;;
75419;SDS011;63998;52.488;13.428;2024-01-11T03:00:13;10.93;;;4.63;;
75419;SDS011;63998;52.488;13.428;2024-01-11T03:02:39;15.75;;;5.95;;
75419;SDS011;63998;52.488;13.428;2024-01-11T03:05:04;13.43;;;5.87;;
75419;SDS011;63998;52.488;13.428;2024-01-11T03:07:29;12.82;;;5.38;;
75419;SDS011;63998;52.488;13.428;2024-01-11T03:09:55;13.73;;;5.65;;
75419;SDS011;63998;52.488;13.428;2024-01-11T03:12:21;9.57;;;5.10;;
75419;SDS011;63998;52.488;13.428;2024-01-11T03:14:47;11.23;;;4.65;;
75419;SDS011;63998;52.488;13.428;2024-01-11T03:17:12;10.63;;;5.13;;
75419;SDS011;63998;52.488;13.428;2024-01-11T03:19:41;9.47;;;4.43;;
75419;SDS011;63998;52.488;13.428;2024-01-11T03:22:06;13.48;;;5.38;;
75419;SDS011;63998;52.488;13.428;2024-01-11T03:24:31;12.00;;;5.13;;
75419;SDS011;63998;52.488;13.428;2024-01-11T03:26:57;14.13;;;6.35;;
75419;SDS011;63998;52.488;13.428;2024-01-11T03:29:22;12.33;;;5.67;;
75419;SDS011;63998;52.488;13.428;2024-01-11T03:31:48;12.03;;;5.43;;
75419;SDS011;63998;52.488;13.428;2024-01-11T03:34:13;13.37;;;5.43;;
75419;SDS011;63998;52.488;13.428;2024-01-11T03:36:38;12.90;;;5.03;;
75419;SDS011;63998;52.488;13.428;2024-01-11T03:39:04;11.50;;;6.10;;
75419;SDS011;63998;52.488;13.428;2024-01-11T03:41:29;12.17;;;5.43;;
75419;SDS011;63998;52.488;13.428;2024-01-11T03:43:55;11.43;;;5.00;;
75419;SDS011;63998;52.488;13.428;2024-01-11T03:46:20;12.20;;;4.73;;
75419;SDS011;63998;52.488;13.428;2024-01-11T03:48:45;12.30;;;4.70;;
75419;SDS011;63998;52.488;13.428;2024-01-11T03:51:10;11.87;;;4.87;;
75419;SDS011;63998;52.488;13.428;2024-01-11T03:53:36;13.03;;;6.20;;
75419;SDS011;63998;52.488;13.428;2024-01-11T03:56:02;11.25;;;4.80;;
75419;SDS011;63998;52.488;13.428;2024-01-11T03:58:27;12.20;;;5.40;;
75419;SDS011;63998;52.488;13.428;2024-01-11T04:00:53;10.43;;;4.50;;
75419;SDS011;63998;52.488;13.428;2024-01-11T04:03:19;14.82;;;5.10;;
75419;SDS011;63998;52.488;13.428;2024-01-11T04:05:44;13.43;;;4.93;;
75419;SDS011;63998;52.488;13.428;2024-01-11T04:08:09;11.35;;;4.13;;
75419;SDS011;63998;52.488;13.428;2024-01-11T04:10:35;9.73;;;4.07;;
75419;SDS011;63998;52.488;13.428;2024-01-11T04:13:00;11.75;;;4.40;;
75419;SDS011;63998;52.488;13.428;2024-01-11T04:15:26;10.63;;;4.68;;
75419;SDS011;63998;52.488;13.428;2024-01-11T04:17:51;11.63;;;4.53;;
75419;SDS011;63998;52.488;13.428;2024-01-11T04:20:16;10.87;;;4.57;;
75419;SDS011;63998;52.488;13.428;2024-01-11T04:22:45;13.38;;;5.03;;
75419;SDS011;63998;52.488;13.428;2024-01-11T04:25:10;12.97;;;4.77;;
75419;SDS011;63998;52.488;13.428;2024-01-11T04:27:36;13.93;;;4.80;;
75419;SDS011;63998;52.488;13.428;2024-01-11T04:30:01;13.10;;;4.82;;
75419;SDS011;63998;52.488;13.428;2024-01-11T04:32:27;11.80;;;4.70;;
75419;SDS011;63998;52.488;13.428;2024-01-11T04:34:52;12.80;;;5.17;;
75419;SDS011;63998;52.488;13.428;2024-01-11T04:37:18;14.97;;;5.43;;
75419;SDS011;63998;52.488;13.428;2024-01-11T04:39:44;14.23;;;5.40;;
75419;SDS011;63998;52.488;13.428;2024-01-11T04:42:09;14.47;;;5.67;;
75419;SDS011;63998;52.488;13.428;2024-01-11T04:44:34;14.23;;;4.53;;
75419;SDS011;63998;52.488;13.428;2024-01-11T04:47:00;15.38;;;4.93;;
75419;SDS011;63998;52.488;13.428;2024-01-11T04:49:25;17.35;;;5.35;;
75419;SDS011;63998;52.488;13.428;2024-01-11T04:51:51;13.07;;;4.40;;
75419;SDS011;63998;52.488;13.428;2024-01-11T04:54:16;16.40;;;5.72;;
75419;SDS011;63998;52.488;13.428;2024-01-11T04:56:41;15.30;;;5.43;;
75419;SDS011;63998;52.488;13.428;2024-01-11T04:59:07;15.30;;;5.00;;
75419;SDS011;63998;52.488;13.428;2024-01-11T05:01:32;15.77;;;4.82;;
75419;SDS011;63998;52.488;13.428;2024-01-11T05:03:57;12.90;;;4.97;;
75419;SDS011;63998;52.488;13.428;2024-01-11T05:06:23;16.23;;;5.93;;
75419;SDS011;63998;52.488;13.428;2024-01-11T05:08:50;16.50;;;5.15;;
75419;SDS011;63998;52.488;13.428;2024-01-11T05:11:19;14.48;;;5.18;;
75419;SDS011;63998;52.488;13.428;2024-01-11T05:13:48;16.48;;;5.75;;
75419;SDS011;63998;52.488;13.428;2024-01-11T05:18:51;20.73;;;6.40;;
75419;SDS011;63998;52.488;13.428;2024-01-11T05:21:17;25.48;;;6.40;;
75419;SDS011;63998;52.488;13.428;2024-01-11T05:23:43;21.25;;;6.57;;
75419;SDS011;63998;52.488;13.428;2024-01-11T05:26:09;20.50;;;6.05;;
75419;SDS011;63998;52.488;13.428;2024-01-11T05:28:34;20.17;;;6.82;;
75419;SDS011;63998;52.488;13.428;2024-01-11T05:31:00;18.63;;;6.50;;
75419;SDS011;63998;52.488;13.428;2024-01-11T05:33:25;23.55;;;7.18;;
75419;SDS011;63998;52.488;13.428;2024-01-11T05:35:51;20.67;;;6.35;;
75419;SDS011;63998;52.488;13.428;2024-01-11T05:38:18;18.30;;;5.70;;
75419;SDS011;63998;52.488;13.428;2024-01-11T05:40:44;21.33;;;6.32;;
75419;SDS011;63998;52.488;13.428;2024-01-11T05:43:09;20.63;;;6.17;;
75419;SDS011;63998;52.488;13.428;2024-01-11T05:45:34;16.67;;;6.50;;
75419;SDS011;63998;52.488;13.428;2024-01-11T05:48:00;20.37;;;6.60;;
75419;SDS011;63998;52.488;13.428;2024-01-11T05:50:25;24.37;;;5.77;;
75419;SDS011;63998;52.488;13.428;2024-01-11T05:52:51;20.95;;;6.07;;
75419;SDS011;63998;52.488;13.428;2024-01-11T05:55:19;17.17;;;6.20;;
75419;SDS011;63998;52.488;13.428;2024-01-11T05:57:44;19.45;;;6.93;;
75419;SDS011;63998;52.488;13.428;2024-01-11T06:00:10;20.20;;;6.57;;
75419;SDS011;63998;52.488;13.428;2024-01-11T06:02:36;29.52;;;7.63;;
75419;SDS011;63998;52.488;13.428;2024-01-11T06:05:02;26.20;;;6.53;;
75419;SDS011;63998;52.488;13.428;2024-01-11T06:07:27;24.13;;;7.30;;
75419;SDS011;63998;52.488;13.428;2024-01-11T06:09:54;24.42;;;6.65;;
75419;SDS011;63998;52.488;13.428;2024-01-11T06:12:19;19.88;;;6.88;;
75419;SDS011;63998;52.488;13.428;2024-01-11T06:14:45;20.45;;;6.82;;
75419;SDS011;63998;52.488;13.428;2024-01-11T06:17:10;25.87;;;7.43;;
75419;SDS011;63998;52.488;13.428;2024-01-11T06:19:36;23.33;;;7.78;;
75419;SDS011;63998;52.488;13.428;2024-01-11T06:22:03;22.92;;;7.05;;
75419;SDS011;63998;52.488;13.428;2024-01-11T06:24:29;23.80;;;7.82;;
75419;SDS011;63998;52.488;13.428;2024-01-11T06:26:54;21.33;;;7.77;;
75419;SDS011;63998;52.488;13.428;2024-01-11T06:29:19;21.73;;;7.73;;
75419;SDS011;63998;52.488;13.428;2024-01-11T06:31:45;24.20;;;8.43;;
75419;SDS011;63998;52.488;13.428;2024-01-11T06:34:10;21.70;;;6.88;;
75419;SDS011;63998;52.488;13.428;2024-01-11T06:36:35;21.73;;;7.53;;
75419;SDS011;63998;52.488;13.428;2024-01-11T06:39:01;23.07;;;7.10;;
75419;SDS011;63998;52.488;13.428;2024-01-11T06:41:26;18.37;;;7.00;;
75419;SDS011;63998;52.488;13.428;2024-01-11T06:43:51;17.77;;;6.63;;
75419;SDS011;63998;52.488;13.428;2024-01-11T06:46:20;24.63;;;7.00;;
75419;SDS011;63998;52.488;13.428;2024-01-11T06:48:46;22.20;;;7.60;;
75419;SDS011;63998;52.488;13.428;2024-01-11T06:51:15;22.30;;;7.50;;
75419;SDS011;63998;52.488;13.428;2024-01-11T06:53:41;24.20;;;7.25;;
75419;SDS011;63998;52.488;13.428;2024-01-11T06:56:14;23.95;;;7.80;;
75419;SDS011;63998;52.488;13.428;2024-01-11T06:58:40;21.33;;;7.18;;
75419;SDS011;63998;52.488;13.428;2024-01-11T07:01:05;27.10;;;7.95;;
75419;SDS011;63998;52.488;13.428;2024-01-11T07:03:31;25.15;;;8.10;;
75419;SDS011;63998;52.488;13.428;2024-01-11T07:05:56;25.13;;;7.32;;
75419;SDS011;63998;52.488;13.428;2024-01-11T07:08:22;25.58;;;7.22;;
75419;SDS011;63998;52.488;13.428;2024-01-11T07:10:47;22.73;;;7.57;;
75419;SDS011;63998;52.488;13.428;2024-01-11T07:13:12;20.03;;;6.80;;
75419;SDS011;63998;52.488;13.428;2024-01-11T07:15:41;30.08;;;8.52;;
75419;SDS011;63998;52.488;13.428;2024-01-11T07:18:06;21.08;;;7.43;;
75419;SDS011;63998;52.488;13.428;2024-01-11T07:20:32;25.70;;;7.40;;
75419;SDS011;63998;52.488;13.428;2024-01-11T07:22:57;22.75;;;7.72;;
75419;SDS011;63998;52.488;13.428;2024-01-11T07:25:22;28.70;;;7.67;;
75419;SDS011;63998;52.488;13.428;2024-01-11T07:27:48;26.10;;;8.43;;
75419;SDS011;63998;52.488;13.428;2024-01-11T07:30:13;23.37;;;7.73;;
75419;SDS011;63998;52.488;13.428;2024-01-11T07:32:39;22.75;;;8.77;;
75419;SDS011;63998;52.488;13.428;2024-01-11T07:35:04;29.58;;;7.75;;
75419;SDS011;63998;52.488;13.428;2024-01-11T07:37:31;21.73;;;7.80;;
75419;SDS011;63998;52.488;13.428;2024-01-11T07:39:57;22.10;;;7.03;;
75419;SDS011;63998;52.488;13.428;2024-01-11T07:42:22;27.80;;;8.27;;
75419;SDS011;63998;52.488;13.428;2024-01-11T07:44:47;25.92;;;8.23;;
75419;SDS011;63998;52.488;13.428;2024-01-11T07:47:13;26.38;;;8.60;;
75419;SDS011;63998;52.488;13.428;2024-01-11T07:49:38;26.03;;;8.70;;
75419;SDS011;63998;52.488;13.428;2024-01-11T07:52:04;27.73;;;8.53;;
75419;SDS011;63998;52.488;13.428;2024-01-11T07:54:29;23.15;;;8.13;;
75419;SDS011;63998;52.488;13.428;2024-01-11T07:56:56;27.05;;;7.95;;
75419;SDS011;63998;52.488;13.428;2024-01-11T07:59:21;22.83;;;8.18;;
75419;SDS011;63998;52.488;13.428;2024-01-11T08:01:47;31.67;;;8.63;;
75419;SDS011;63998;52.488;13.428;2024-01-11T08:04:13;28.85;;;8.90;;
75419;SDS011;63998;52.488;13.428;2024-01-11T08:06:39;24.65;;;8.13;;
75419;SDS011;63998;52.488;13.428;2024-01-11T08:09:04;28.37;;;9.20;;
75419;SDS011;63998;52.488;13.428;2024-01-11T08:11:30;27.23;;;8.57;;
75419;SDS011;63998;52.488;13.428;2024-01-11T08:13:56;20.80;;;8.02;;
75419;SDS011;63998;52.488;13.428;2024-01-11T08:16:21;25.02;;;8.77;;
75419;SDS011;63998;52.488;13.428;2024-01-11T08:18:47;26.70;;;9.18;;
75419;SDS011;63998;52.488;13.428;2024-01-11T08:21:14;27.67;;;9.07;;
75419;SDS011;63998;52.488;13.428;2024-01-11T08:23:40;23.55;;;8.13;;
75419;SDS011;63998;52.488;13.428;2024-01-11T08:26:09;23.70;;;7.63;;
75419;SDS011;63998;52.488;13.428;2024-01-11T08:28:43;24.73;;;8.27;;
75419;SDS011;63998;52.488;13.428;2024-01-11T08:31:09;22.83;;;8.10;;
75419;SDS011;63998;52.488;13.428;2024-01-11T08:33:34;26.77;;;9.50;;
75419;SDS011;63998;52.488;13.428;2024-01-11T08:36:01;26.55;;;8.70;;
75419;SDS011;63998;52.488;13.428;2024-01-11T08:38:28;26.50;;;8.50;;
75419;SDS011;63998;52.488;13.428;2024-01-11T08:40:54;25.65;;;9.00;;
75419;SDS011;63998;52.488;13.428;2024-01-11T08:43:20;23.02;;;8.50;;
75419;SDS011;63998;52.488;13.428;2024-01-11T08:45:45;21.27;;;6.88;;
75419;SDS011;63998;52.488;13.428;2024-01-11T08:48:11;28.75;;;7.97;;
75419;SDS011;63998;52.488;13.428;2024-01-11T08:50:37;21.00;;;7.18;;
75419;SDS011;63998;52.488;13.428;2024-01-11T08:53:02;19.87;;;7.40;;
75419;SDS011;63998;52.488;13.428;2024-01-11T08:55:28;22.88;;;7.70;;
75419;SDS011;63998;52.488;13.428;2024-01-11T08:57:53;23.00;;;8.27;;
75419;SDS011;63998;52.488;13.428;2024-01-11T09:00:19;28.80;;;9.60;;
75419;SDS011;63998;52.488;13.428;2024-01-11T09:02:44;27.77;;;9.23;;
75419;SDS011;63998;52.488;13.428;2024-01-11T09:05:11;24.98;;;8.82;;
75419;SDS011;63998;52.488;13.428;2024-01-11T09:07:36;22.08;;;7.57;;
75419;SDS011;63998;52.488;13.428;2024-01-11T09:10:02;26.02;;;8.35;;
75419;SDS011;63998;52.488;13.428;2024-01-11T09:12:28;23.50;;;8.38;;
75419;SDS011;63998;52.488;13.428;2024-01-11T09:14:53;21.80;;;8.65;;
75419;SDS011;63998;52.488;13.428;2024-01-11T09:17:19;25.23;;;9.07;;
75419;SDS011;63998;52.488;13.428;2024-01-11T09:19:45;29.83;;;9.23;;
75419;SDS011;63998;52.488;13.428;2024-01-11T09:22:10;30.20;;;9.13;;
75419;SDS011;63998;52.488;13.428;2024-01-11T09:24:35;25.33;;;8.63;;
75419;SDS011;63998;52.488;13.428;2024-01-11T09:27:01;33.08;;;10.63;;
75419;SDS011;63998;52.488;13.428;2024-01-11T09:29:26;33.78;;;10.27;;
75419;SDS011;63998;52.488;13.428;2024-01-11T09:31:52;31.65;;;10.43;;
75419;SDS011;63998;52.488;13.428;2024-01-11T09:34:18;28.63;;;9.20;;
75419;SDS011;63998;52.488;13.428;2024-01-11T09:36:44;27.67;;;9.67;;
75419;SDS011;63998;52.488;13.428;2024-01-11T09:39:10;26.73;;;8.73;;
75419;SDS011;63998;52.488;13.428;2024-01-11T09:41:38;30.42;;;9.88;;
75419;SDS011;63998;52.488;13.428;2024-01-11T09:44:08;35.80;;;11.38;;
75419;SDS011;63998;52.488;13.428;2024-01-11T09:46:34;33.53;;;10.55;;
75419;SDS011;63998;52.488;13.428;2024-01-11T09:49:00;28.63;;;10.05;;
75419;SDS011;63998;52.488;13.428;2024-01-11T09:51:28;32.35;;;10.73;;
75419;SDS011;63998;52.488;13.428;2024-01-11T09:53:54;32.40;;;10.00;;
75419;SDS011;63998;52.488;13.428;2024-01-11T09:56:21;30.33;;;10.20;;
75419;SDS011;63998;52.488;13.428;2024-01-11T09:58:47;27.75;;;9.38;;
75419;SDS011;63998;52.488;13.428;2024-01-11T10:01:15;26.48;;;9.23;;
75419;SDS011;63998;52.488;13.428;2024-01-11T10:03:41;29.92;;;10.80;;
75419;SDS011;63998;52.488;13.428;2024-01-11T10:06:07;27.70;;;9.88;;
75419;SDS011;63998;52.488;13.428;2024-01-11T10:08:34;22.17;;;8.35;;
75419;SDS011;63998;52.488;13.428;2024-01-11T10:11:00;27.80;;;9.00;;
75419;SDS011;63998;52.488;13.428;2024-01-11T10:13:29;29.27;;;10.30;;
75419;SDS011;63998;52.488;13.428;2024-01-11T10:16:08;28.33;;;9.65;;
75419;SDS011;63998;52.488;13.428;2024-01-11T10:18:34;24.42;;;9.00;;
75419;SDS011;63998;52.488;13.428;2024-01-11T10:21:01;24.83;;;9.35;;
75419;SDS011;63998;52.488;13.428;2024-01-11T10:23:26;25.80;;;9.00;;
75419;SDS011;63998;52.488;13.428;2024-01-11T10:25:54;28.25;;;9.90;;
75419;SDS011;63998;52.488;13.428;2024-01-11T10:28:21;29.23;;;10.52;;
75419;SDS011;63998;52.488;13.428;2024-01-11T10:30:46;33.50;;;11.73;;
75419;SDS011;63998;52.488;13.428;2024-01-11T10:35:47;23.23;;;9.40;;
75419;SDS011;63998;52.488;13.428;2024-01-11T10:38:15;23.08;;;8.93;;
75419;SDS011;63998;52.488;13.428;2024-01-11T10:40:42;24.77;;;10.15;;
75419;SDS011;63998;52.488;13.428;2024-01-11T10:43:11;29.30;;;9.43;;
75419;SDS011;63998;52.488;13.428;2024-01-11T10:45:38;27.70;;;9.55;;
75419;SDS011;63998;52.488;13.428;2024-01-11T10:48:07;27.33;;;10.40;;
75419;SDS011;63998;52.488;13.428;2024-01-11T10:50:40;27.17;;;9.68;;
75419;SDS011;63998;52.488;13.428;2024-01-11T10:55:42;23.35;;;8.95;;
75419;SDS011;63998;52.488;13.428;2024-01-11T10:58:09;24.48;;;8.88;;
75419;SDS011;63998;52.488;13.428;2024-01-11T11:00:35;28.48;;;10.18;;
75419;SDS011;63998;52.488;13.428;2024-01-11T11:05:42;29.40;;;9.93;;
75419;SDS011;63998;52.488;13.428;2024-01-11T11:08:08;27.35;;;9.40;;
75419;SDS011;63998;52.488;13.428;2024-01-11T11:10:35;28.58;;;10.38;;
75419;SDS011;63998;52.488;13.428;2024-01-11T11:13:07;25.63;;;8.95;;
75419;SDS011;63998;52.488;13.428;2024-01-11T11:15:35;31.65;;;10.43;;
75419;SDS011;63998;52.488;13.428;2024-01-11T11:18:02;32.17;;;11.18;;
75419;SDS011;63998;52.488;13.428;2024-01-11T11:20:27;32.25;;;10.90;;
75419;SDS011;63998;52.488;13.428;2024-01-11T11:25:45;28.55;;;11.13;;
75419;SDS011;63998;52.488;13.428;2024-01-11T11:28:11;37.40;;;11.98;;
75419;SDS011;63998;52.488;13.428;2024-01-11T11:30:38;31.00;;;9.48;;
75419;SDS011;63998;52.488;13.428;2024-01-11T11:43:47;32.80;;;10.65;;
75419;SDS011;63998;52.488;13.428;2024-01-11T11:46:12;24.90;;;9.30;;
75419;SDS011;63998;52.488;13.428;2024-01-11T11:48:51;22.83;;;9.00;;
75419;SDS011;63998;52.488;13.428;2024-01-11T11:57:04;25.92;;;9.32;;
75419;SDS011;63998;52.488;13.428;2024-01-11T11:59:29;24.27;;;8.77;;
75419;SDS011;63998;52.488;13.428;2024-01-11T14:28:56;14.88;;;6.60;;
75419;SDS011;63998;52.488;13.428;2024-01-11T14:31:23;16.10;;;6.10;;
75419;SDS011;63998;52.488;13.428;2024-01-11T14:33:58;17.50;;;6.45;;
75419;SDS011;63998;52.488;13.428;2024-01-11T14:36:32;16.27;;;6.45;;
75419;SDS011;63998;52.488;13.428;2024-01-11T14:38:58;17.33;;;7.03;;
75419;SDS011;63998;52.488;13.428;2024-01-11T14:48:36;17.90;;;6.63;;
75419;SDS011;63998;52.488;13.428;2024-01-11T14:51:01;14.82;;;6.13;;
75419;SDS011;63998;52.488;13.428;2024-01-11T14:53:27;17.00;;;7.10;;
75419;SDS011;63998;52.488;13.428;2024-01-11T14:55:53;13.98;;;6.18;;
75419;SDS011;63998;52.488;13.428;2024-01-11T14:58:18;19.40;;;7.22;;
75419;SDS011;63998;52.488;13.428;2024-01-11T15:00:43;18.40;;;7.03;;
75419;SDS011;63998;52.488;13.428;2024-01-11T15:03:09;15.73;;;5.45;;
75419;SDS011;63998;52.488;13.428;2024-01-11T15:05:34;17.77;;;6.40;;
75419;SDS011;63998;52.488;13.428;2024-01-11T15:08:01;16.58;;;7.35;;
75419;SDS011;63998;52.488;13.428;2024-01-11T15:10:27;19.33;;;7.35;;
75419;SDS011;63998;52.488;13.428;2024-01-11T15:12:52;17.87;;;6.90;;
75419;SDS011;63998;52.488;13.428;2024-01-11T15:15:17;17.88;;;6.38;;
75419;SDS011;63998;52.488;13.428;2024-01-11T15:17:43;16.13;;;6.50;;
75419;SDS011;63998;52.488;13.428;2024-01-11T15:20:09;25.48;;;10.40;;
75419;SDS011;63998;52.488;13.428;2024-01-11T15:22:35;26.15;;;12.10;;
75419;SDS011;63998;52.488;13.428;2024-01-11T15:25:00;26.48;;;13.10;;
75419;SDS011;63998;52.488;13.428;2024-01-11T15:27:26;14.25;;;6.28;;
75419;SDS011;63998;52.488;13.428;2024-01-11T15:29:51;14.07;;;5.63;;
75419;SDS011;63998;52.488;13.428;2024-01-11T15:32:17;17.13;;;6.70;;
75419;SDS011;63998;52.488;13.428;2024-01-11T15:34:42;16.95;;;6.07;;
75419;SDS011;63998;52.488;13.428;2024-01-11T15:37:07;13.83;;;5.83;;
75419;SDS011;63998;52.488;13.428;2024-01-11T15:39:33;13.80;;;5.50;;
75419;SDS011;63998;52.488;13.428;2024-01-11T15:41:59;18.15;;;5.88;;
75419;SDS011;63998;52.488;13.428;2024-01-11T15:44:28;12.95;;;6.07;;
75419;SDS011;63998;52.488;13.428;2024-01-11T15:46:54;14.27;;;5.95;;
75419;SDS011;63998;52.488;13.428;2024-01-11T15:49:20;15.10;;;5.38;;
75419;SDS011;63998;52.488;13.428;2024-01-11T15:51:45;17.73;;;6.10;;
75419;SDS011;63998;52.488;13.428;2024-01-11T15:54:11;16.88;;;6.53;;
75419;SDS011;63998;52.488;13.428;2024-01-11T15:56:36;15.18;;;6.13;;
75419;SDS011;63998;52.488;13.428;2024-01-11T15:59:02;14.00;;;5.43;;
75419;SDS011;63998;52.488;13.428;2024-01-11T16:01:28;16.60;;;5.88;;
75419;SDS011;63998;52.488;13.428;2024-01-11T16:03:53;21.48;;;6.82;;
75419;SDS011;63998;52.488;13.428;2024-01-11T16:06:19;15.23;;;5.43;;
75419;SDS011;63998;52.488;13.428;2024-01-11T16:08:44;17.60;;;6.43;;
75419;SDS011;63998;52.488;13.428;2024-01-11T16:11:09;16.48;;;6.68;;
75419;SDS011;63998;52.488;13.428;2024-01-11T16:13:35;15.00;;;5.93;;
75419;SDS011;63998;52.488;13.428;2024-01-11T16:16:00;13.13;;;5.57;;
75419;SDS011;63998;52.488;13.428;2024-01-11T16:18:26;16.60;;;6.10;;
75419;SDS011;63998;52.488;13.428;2024-01-11T16:20:51;16.70;;;5.82;;
75419;SDS011;63998;52.488;13.428;2024-01-11T16:23:22;17.95;;;6.63;;
75419;SDS011;63998;52.488;13.428;2024-01-11T16:25:48;15.80;;;6.50;;
75419;SDS011;63998;52.488;13.428;2024-01-11T16:28:13;15.68;;;6.10;;
75419;SDS011;63998;52.488;13.428;2024-01-11T16:30:39;14.32;;;5.22;;
75419;SDS011;63998;52.488;13.428;2024-01-11T16:33:04;18.07;;;6.30;;
75419;SDS011;63998;52.488;13.428;2024-01-11T16:35:29;15.90;;;5.50;;
75419;SDS011;63998;52.488;13.428;2024-01-11T16:37:55;19.95;;;5.97;;
75419;SDS011;63998;52.488;13.428;2024-01-11T16:40:20;17.05;;;6.18;;
75419;SDS011;63998;52.488;13.428;2024-01-11T16:42:46;15.70;;;6.25;;
75419;SDS011;63998;52.488;13.428;2024-01-11T16:45:12;16.77;;;6.13;;
75419;SDS011;63998;52.488;13.428;2024-01-11T16:47:40;15.82;;;6.57;;
75419;SDS011;63998;52.488;13.428;2024-01-11T16:50:08;16.77;;;6.75;;
75419;SDS011;63998;52.488;13.428;2024-01-11T16:52:39;17.90;;;7.88;;
75419;SDS011;63998;52.488;13.428;2024-01-11T16:55:04;17.23;;;6.33;;
75419;SDS011;63998;52.488;13.428;2024-01-11T16:57:30;17.88;;;7.20;;
75419;SDS011;63998;52.488;13.428;2024-01-11T16:59:55;18.13;;;7.85;;
75419;SDS011;63998;52.488;13.428;2024-01-11T18:41:54;24.17;;;9.65;;
75419;SDS011;63998;52.488;13.428;2024-01-11T18:45:17;25.17;;;9.73;;
